Pagrindinis puslapis
METAR-TAF:

METAR-TAF

Oro uostai :

Afjonkarahisaras, Turkija

platuma: 38-45N, ilguma: 030-32E, Aukštis: 1034 m

METAR: trūkstamas

Laikas: 08:55 (05:55 UTC)

Prognozė

Ataskaita buvo paskelbta 25 valandos ir 15 minutes, ne 04:40 UTC
Prognozė galioja nuo 09 metu 06 UTC su 09 metu 15 UTC
Vėjas 12 kt iš Šiaurės
Matomumas 10 km arba daugiau
nėra debesų žemiau 1500 m ir nėra kamuolinių lietaus debesų
Tapsmas
nuo 09 metu 06 UTC su 09 metu 09 UTC
Mažai debesys ne aukštis 4000 ft
Laikinai
nuo 09 metu 11 UTC su 09 metu 15 UTC
Su prošvaistėmis ne aukštis 3500 ft

TAF: LTAH 090440Z 0906/0915 01012KT CAVOK BECMG 0906/0909 FEW040 TEMPO 0911/0915 BKN035

Orai ataskaitas ir orų prognozės (METAR, TAF).

turimą stotys yra geltonos ir raudonos taškus žemėlapyje.

Perkelti pele per norėdami pamatyti stoties vardą.

Tada spustelėkite, norėdami matyti oro stebėjimo ir prognozės.

Norėdami pakeisti žemėlapį: spustelėkite ant žalios mygtukų su juodo kryžiaus žemyn,; žalią mygtuką su brūkšneliu, jei norite nutolinti; arba žalių rodyklių gretimoms žemėlapius.


METAR-TAF: